createdAt,value
2018-03-28T00:00:49.584Z,45.75
2018-03-28T00:01:52.879Z,46.75
2018-03-28T00:02:56.170Z,41.55
2018-03-28T00:03:58.726Z,41.70
2018-03-28T00:05:02.018Z,41.78
2018-03-28T00:06:04.545Z,43.08
2018-03-28T00:07:07.086Z,43.72
2018-03-28T00:08:09.615Z,41.63
2018-03-28T00:09:12.146Z,44.47
2018-03-28T00:10:14.669Z,40.15
2018-03-28T00:11:17.229Z,40.42
2018-03-28T00:12:19.745Z,45.80
2018-03-28T00:13:22.282Z,39.88
2018-03-28T00:14:24.821Z,48.10
2018-03-28T00:15:27.393Z,41.75
2018-03-28T00:16:29.971Z,42.72
2018-03-28T00:17:32.494Z,45.03
2018-03-28T00:18:35.777Z,43.40
2018-03-28T00:19:39.101Z,39.63
2018-03-28T00:20:41.653Z,43.17
2018-03-28T00:21:44.208Z,42.25
2018-03-28T00:22:46.737Z,46.13
2018-03-28T00:23:49.286Z,41.30
2018-03-28T00:24:51.814Z,38.63
2018-03-28T00:25:54.333Z,47.15
2018-03-28T00:26:56.894Z,41.45
2018-03-28T00:27:59.434Z,41.20
2018-03-28T00:29:01.961Z,46.72
2018-03-28T00:30:05.251Z,48.08
2018-03-28T00:31:07.773Z,40.30
2018-03-28T00:32:10.331Z,41.80
2018-03-28T00:33:12.867Z,44.78
2018-03-28T00:34:15.384Z,44.30
2018-03-28T00:35:17.922Z,44.85
2018-03-28T00:36:20.488Z,47.42
2018-03-28T00:37:23.016Z,43.38
2018-03-28T00:38:25.556Z,46.50
2018-03-28T00:39:28.849Z,43.67
2018-03-28T00:40:32.137Z,39.88
2018-03-28T00:41:35.455Z,46.90
2018-03-28T00:42:37.989Z,45.10
2018-03-28T00:43:41.375Z,44.60
2018-03-28T00:44:44.714Z,49.58
2018-03-28T00:45:47.241Z,44.35
2018-03-28T00:46:49.778Z,45.38
2018-03-28T00:47:52.297Z,43.80
2018-03-28T00:48:54.817Z,42.47
2018-03-28T00:49:58.141Z,44.70
2018-03-28T00:51:13.450Z,44.63
2018-03-28T00:52:16.761Z,44.25
2018-03-28T00:53:20.058Z,44.03
2018-03-28T00:54:22.639Z,45.85
2018-03-28T00:55:25.199Z,43.47
2018-03-28T00:56:27.766Z,47.85
2018-03-28T00:57:30.292Z,41.17
2018-03-28T00:58:32.805Z,48.42
2018-03-28T00:59:35.346Z,44.45
2018-03-28T01:00:38.647Z,44.97
2018-03-28T01:01:41.161Z,48.58
2018-03-28T01:02:43.684Z,42.15
2018-03-28T01:03:46.202Z,41.08
2018-03-28T01:04:48.757Z,43.83
2018-03-28T01:05:51.309Z,44.28
2018-03-28T01:06:53.847Z,41.40
2018-03-28T01:07:56.361Z,41.50
2018-03-28T01:08:58.877Z,42.50
2018-03-28T01:10:01.433Z,49.80
2018-03-28T01:11:03.992Z,46.63
2018-03-28T01:12:07.290Z,47.38
2018-03-28T01:13:09.814Z,39.28
2018-03-28T01:14:13.120Z,43.35
2018-03-28T01:15:16.420Z,39.85
2018-03-28T01:16:18.996Z,42.62
2018-03-28T01:17:21.529Z,47.58
2018-03-28T01:18:24.820Z,41.50
2018-03-28T01:19:28.118Z,44.63
2018-03-28T01:20:30.679Z,46.05
2018-03-28T01:21:33.210Z,40.58
2018-03-28T01:22:35.746Z,46.17
2018-03-28T01:23:38.282Z,44.38
2018-03-28T01:24:40.819Z,43.15
2018-03-28T01:25:43.389Z,48.17
2018-03-28T01:26:46.695Z,53.13
2018-03-28T01:27:50.030Z,48.53
2018-03-28T01:28:52.555Z,47.10
2018-03-28T01:29:55.087Z,44.63
2018-03-28T01:30:57.612Z,43.78
2018-03-28T01:32:00.139Z,46.80
2018-03-28T01:33:03.476Z,54.25
2018-03-28T01:34:06.000Z,45.88
2018-03-28T01:35:08.515Z,46.53
2018-03-28T01:36:11.038Z,43.97
2018-03-28T01:37:13.560Z,45.20
2018-03-28T01:38:16.110Z,44.75
2018-03-28T01:39:19.430Z,45.97
2018-03-28T01:40:22.718Z,44.60
2018-03-28T01:41:26.019Z,46.17
2018-03-28T01:42:28.585Z,47.22
2018-03-28T01:43:31.267Z,50.00
2018-03-28T01:44:33.792Z,48.70
2018-03-28T01:45:36.314Z,47.85
2018-03-28T01:46:38.837Z,48.70
2018-03-28T01:47:42.178Z,48.60
2018-03-28T01:48:44.697Z,52.38
2018-03-28T01:49:47.229Z,44.15
2018-03-28T01:50:49.752Z,45.47
2018-03-28T01:51:52.277Z,44.65
2018-03-28T01:52:55.596Z,48.10
2018-03-28T01:53:58.123Z,46.15
2018-03-28T01:55:01.420Z,47.50
2018-03-28T01:56:04.701Z,48.97
2018-03-28T01:57:07.986Z,45.10
2018-03-28T01:58:11.330Z,48.10
2018-03-28T01:59:13.858Z,49.58
2018-03-28T02:00:16.380Z,45.90
2018-03-28T02:01:18.896Z,47.72
2018-03-28T02:02:21.424Z,52.13
2018-03-28T02:03:24.757Z,45.40
2018-03-28T02:04:27.268Z,43.10
2018-03-28T02:05:29.846Z,49.05
2018-03-28T02:06:33.133Z,51.22
2018-03-28T02:07:36.448Z,45.80
2018-03-28T02:08:39.023Z,44.08
2018-03-28T02:09:41.544Z,46.28
2018-03-28T02:10:44.840Z,46.37
2018-03-28T02:11:48.125Z,46.63
2018-03-28T02:12:51.418Z,45.25
2018-03-28T02:13:53.977Z,45.72
2018-03-28T02:14:56.539Z,45.55
2018-03-28T02:15:59.830Z,42.17
2018-03-28T02:17:02.363Z,46.63
2018-03-28T02:18:04.895Z,45.55
2018-03-28T02:19:07.453Z,45.03
2018-03-28T02:20:09.982Z,49.17
2018-03-28T02:21:13.281Z,41.75
2018-03-28T02:22:15.843Z,38.80
2018-03-28T02:23:19.133Z,46.40
2018-03-28T02:24:21.658Z,37.38
2018-03-28T02:25:24.185Z,39.70
2018-03-28T02:26:26.789Z,43.47
2018-03-28T02:27:29.319Z,37.97
2018-03-28T02:28:31.838Z,35.20
2018-03-28T02:29:34.440Z,40.08
2018-03-28T02:30:36.955Z,47.08
2018-03-28T02:31:39.504Z,39.85
2018-03-28T02:32:42.067Z,38.35
2018-03-28T02:33:44.597Z,35.97
2018-03-28T02:34:47.124Z,37.55
2018-03-28T02:35:49.641Z,36.03
2018-03-28T02:36:52.159Z,34.25
2018-03-28T02:37:54.725Z,39.80
2018-03-28T02:38:57.254Z,36.33
2018-03-28T02:39:59.810Z,40.17
2018-03-28T02:41:02.349Z,37.97
2018-03-28T02:42:05.646Z,34.83
2018-03-28T02:43:08.201Z,36.58
2018-03-28T02:44:11.491Z,34.85
2018-03-28T02:45:14.028Z,35.35
2018-03-28T02:46:16.578Z,36.35
2018-03-28T02:47:19.140Z,38.67
2018-03-28T02:48:21.661Z,38.67
2018-03-28T02:49:24.182Z,35.60
2018-03-28T02:50:26.714Z,36.50
2018-03-28T02:51:30.011Z,37.15
2018-03-28T02:52:32.572Z,36.42
2018-03-28T02:53:35.097Z,35.17
2018-03-28T02:54:38.376Z,36.40
2018-03-28T02:55:41.673Z,35.90
2018-03-28T02:56:44.245Z,37.08
2018-03-28T02:57:46.799Z,37.10
2018-03-28T02:58:49.321Z,36.80
2018-03-28T02:59:51.841Z,39.55
2018-03-28T03:00:54.368Z,38.33
2018-03-28T03:01:56.901Z,38.67
2018-03-28T03:02:59.452Z,41.63
2018-03-28T03:04:02.005Z,35.10
2018-03-28T03:05:04.562Z,39.50
2018-03-28T03:06:07.851Z,40.67
2018-03-28T03:07:10.382Z,39.97
2018-03-28T03:08:12.916Z,42.85
2018-03-28T03:09:15.474Z,38.45
2018-03-28T03:10:18.000Z,44.78
2018-03-28T03:11:21.284Z,41.60
2018-03-28T03:12:24.570Z,42.72
2018-03-28T03:13:27.854Z,42.80
2018-03-28T03:14:31.181Z,43.25
2018-03-28T03:15:34.499Z,39.45
2018-03-28T03:16:37.027Z,42.90
2018-03-28T03:17:39.542Z,41.47
2018-03-28T03:18:42.065Z,40.33
2018-03-28T03:19:44.600Z,41.25
2018-03-28T03:20:47.152Z,39.28
2018-03-28T03:21:50.481Z,44.00
2018-03-28T03:22:53.006Z,42.55
2018-03-28T03:23:56.289Z,41.35
2018-03-28T03:24:59.578Z,42.55
2018-03-28T03:26:02.918Z,40.12
2018-03-28T03:27:05.432Z,43.15
2018-03-28T03:28:07.968Z,42.10
2018-03-28T03:29:10.492Z,40.10
2018-03-28T03:30:13.014Z,40.30
2018-03-28T03:31:16.343Z,45.53
2018-03-28T03:32:18.905Z,40.92
2018-03-28T03:33:21.424Z,38.17
2018-03-28T03:34:23.950Z,42.08
2018-03-28T03:35:26.503Z,37.40
2018-03-28T03:36:29.034Z,37.65
2018-03-28T03:37:32.325Z,36.83
2018-03-28T03:38:35.627Z,38.85
2018-03-28T03:39:38.262Z,41.13
2018-03-28T03:40:41.612Z,38.88
2018-03-28T03:41:44.142Z,35.97
2018-03-28T03:42:46.679Z,41.17
2018-03-28T03:43:49.985Z,39.45
2018-03-28T03:44:52.513Z,35.72
2018-03-28T03:45:55.182Z,38.50
2018-03-28T03:46:57.699Z,37.28
2018-03-28T03:48:00.224Z,38.88
2018-03-28T03:49:02.750Z,40.75
2018-03-28T03:50:05.279Z,37.03
2018-03-28T03:51:08.602Z,41.60
2018-03-28T03:52:11.124Z,35.50
2018-03-28T03:53:14.409Z,34.25
2018-03-28T03:54:17.705Z,39.00
2018-03-28T03:55:20.226Z,31.35
2018-03-28T03:56:22.776Z,41.50
2018-03-28T03:57:25.301Z,40.05
2018-03-28T03:58:27.861Z,41.30
2018-03-28T03:59:31.145Z,37.10
2018-03-28T04:00:33.700Z,38.50
2018-03-28T04:01:36.988Z,40.22
2018-03-28T04:02:40.335Z,37.60
2018-03-28T04:03:42.891Z,35.45
2018-03-28T04:04:45.414Z,39.00
2018-03-28T04:05:48.701Z,39.78
2018-03-28T04:06:51.233Z,38.35
2018-03-28T04:07:53.794Z,34.25
2018-03-28T04:08:56.365Z,40.03
2018-03-28T04:09:58.880Z,35.15
2018-03-28T04:11:01.430Z,35.65
2018-03-28T04:12:03.952Z,39.25
2018-03-28T04:13:06.477Z,35.15
2018-03-28T04:14:09.039Z,37.85
2018-03-28T04:15:11.553Z,41.20
2018-03-28T04:16:14.078Z,43.08
2018-03-28T04:17:16.599Z,40.15
2018-03-28T04:18:19.453Z,39.92
2018-03-28T04:19:22.022Z,39.83
2018-03-28T04:20:24.547Z,42.75
2018-03-28T04:21:27.067Z,38.65
2018-03-28T04:22:29.593Z,42.35
2018-03-28T04:23:32.121Z,40.90
2018-03-28T04:24:35.440Z,45.15
2018-03-28T04:25:37.964Z,43.75
2018-03-28T04:26:41.261Z,37.22
2018-03-28T04:27:44.544Z,43.83
2018-03-28T04:28:47.833Z,40.05
2018-03-28T04:29:50.398Z,37.53
2018-03-28T04:30:52.921Z,40.42
2018-03-28T04:31:55.442Z,39.13
2018-03-28T04:32:57.966Z,41.15
2018-03-28T04:34:00.490Z,40.25
2018-03-28T04:35:03.079Z,41.40
2018-03-28T04:36:05.600Z,42.83
2018-03-28T04:37:08.131Z,37.75
2018-03-28T04:38:10.661Z,37.97
2018-03-28T04:39:13.194Z,38.05
2018-03-28T04:40:15.753Z,38.10
2018-03-28T04:41:19.091Z,38.88
2018-03-28T04:42:21.609Z,38.95
2018-03-28T04:43:24.140Z,43.45
2018-03-28T04:44:26.656Z,40.80
2018-03-28T04:45:29.183Z,43.45
2018-03-28T04:46:31.741Z,36.40
2018-03-28T04:47:34.258Z,38.10
2018-03-28T04:48:36.771Z,41.40
2018-03-28T04:49:39.293Z,37.33
2018-03-28T04:50:41.865Z,36.40
2018-03-28T04:51:44.398Z,36.50
2018-03-28T04:52:47.686Z,40.05
2018-03-28T04:53:50.230Z,41.30
2018-03-28T04:54:53.517Z,42.62
2018-03-28T04:55:56.834Z,38.53
2018-03-28T04:56:59.356Z,40.42
2018-03-28T04:58:01.886Z,36.05
2018-03-28T04:59:04.421Z,47.40
2018-03-28T05:00:06.950Z,37.67
2018-03-28T05:01:09.469Z,39.00
2018-03-28T05:02:11.995Z,40.40
2018-03-28T05:03:15.286Z,39.97
2018-03-28T05:04:18.661Z,38.67
2018-03-28T05:05:21.180Z,33.45
2018-03-28T05:06:23.734Z,37.17
2018-03-28T05:07:26.265Z,35.80
2018-03-28T05:08:29.593Z,39.97
2018-03-28T05:09:32.124Z,39.03
2018-03-28T05:10:35.410Z,41.37
2018-03-28T05:11:38.689Z,41.08
2018-03-28T05:12:42.017Z,34.70
2018-03-28T05:13:44.549Z,37.63
2018-03-28T05:14:47.100Z,37.42
2018-03-28T05:15:50.404Z,39.25
2018-03-28T05:16:52.933Z,33.03
2018-03-28T05:17:55.497Z,40.58
2018-03-28T05:18:58.022Z,35.03
2018-03-28T05:20:00.584Z,38.28
2018-03-28T05:21:03.107Z,35.28
2018-03-28T05:22:05.634Z,36.22
2018-03-28T05:23:08.185Z,42.80
2018-03-28T05:24:10.744Z,36.97
2018-03-28T05:25:13.297Z,36.75
2018-03-28T05:26:15.823Z,34.88
2018-03-28T05:27:18.344Z,39.47
2018-03-28T05:28:20.890Z,31.95
2018-03-28T05:29:24.198Z,36.63
2018-03-28T05:30:26.754Z,35.15
2018-03-28T05:31:29.301Z,32.25
2018-03-28T05:32:32.610Z,34.80
2018-03-28T05:33:35.133Z,34.90
2018-03-28T05:34:37.693Z,37.60
2018-03-28T05:35:40.219Z,37.83
2018-03-28T05:36:42.767Z,38.55
2018-03-28T05:37:45.309Z,35.85
2018-03-28T05:38:48.654Z,34.22
2018-03-28T05:39:51.169Z,37.35
2018-03-28T05:40:54.467Z,31.80
2018-03-28T05:41:56.995Z,34.40
2018-03-28T05:42:59.566Z,33.15
2018-03-28T05:44:02.125Z,35.55
2018-03-28T05:45:04.644Z,33.97
2018-03-28T05:46:07.163Z,37.78
2018-03-28T05:47:09.696Z,34.65
2018-03-28T05:48:12.226Z,32.00
2018-03-28T05:49:14.789Z,33.92
2018-03-28T05:50:18.122Z,33.97
2018-03-28T05:51:20.626Z,40.72
2018-03-28T05:52:23.923Z,34.10
2018-03-28T05:53:27.212Z,33.65
2018-03-28T05:54:29.826Z,31.95
2018-03-28T05:55:32.330Z,33.33
2018-03-28T05:56:35.619Z,30.50
2018-03-28T05:57:38.946Z,31.87
2018-03-28T05:58:41.468Z,34.35
2018-03-28T05:59:44.820Z,33.65
2018-03-28T06:00:47.348Z,33.80
2018-03-28T06:01:49.888Z,31.23
2018-03-28T06:02:53.189Z,36.17
2018-03-28T06:03:55.715Z,33.63
2018-03-28T06:04:58.252Z,33.28
2018-03-28T06:06:00.818Z,38.97
2018-03-28T06:07:03.346Z,31.85
2018-03-28T06:08:05.899Z,33.50
2018-03-28T06:09:09.185Z,32.65
2018-03-28T06:10:12.475Z,27.25
2018-03-28T06:11:15.799Z,30.42
2018-03-28T06:12:18.324Z,35.35
2018-03-28T06:13:21.603Z,29.27
2018-03-28T06:14:24.906Z,30.02
2018-03-28T06:15:27.455Z,30.00
2018-03-28T06:16:30.785Z,31.83
2018-03-28T06:17:33.312Z,31.90
2018-03-28T06:18:35.833Z,27.67
2018-03-28T06:19:38.366Z,30.65
2018-03-28T06:20:40.896Z,29.70
2018-03-28T06:21:44.213Z,31.70
2018-03-28T06:22:46.770Z,35.65
2018-03-28T06:23:49.299Z,32.90
2018-03-28T06:24:51.840Z,35.25
2018-03-28T06:25:54.373Z,33.58
2018-03-28T06:26:56.929Z,28.45
2018-03-28T06:27:59.459Z,31.45
2018-03-28T06:29:01.985Z,31.10
2018-03-28T06:30:04.505Z,31.08
2018-03-28T06:31:08.059Z,29.33
2018-03-28T06:32:10.583Z,29.00
2018-03-28T06:33:13.112Z,31.10
2018-03-28T06:34:15.642Z,30.50
2018-03-28T06:35:18.157Z,29.17
2018-03-28T06:36:20.697Z,37.38
2018-03-28T06:37:23.254Z,32.38
2018-03-28T06:38:25.769Z,33.83
2018-03-28T06:39:29.096Z,30.30
2018-03-28T06:40:31.641Z,31.87
2018-03-28T06:41:34.165Z,34.25
2018-03-28T06:42:37.477Z,31.87
2018-03-28T06:43:40.044Z,30.42
2018-03-28T06:44:42.572Z,32.70
2018-03-28T06:45:45.098Z,30.42
2018-03-28T06:46:47.817Z,32.45
2018-03-28T06:47:50.345Z,37.85
2018-03-28T06:48:52.862Z,32.20
2018-03-28T06:49:56.149Z,32.83
2018-03-28T06:50:59.436Z,37.88
2018-03-28T06:52:02.756Z,39.65
2018-03-28T06:53:05.366Z,35.58
2018-03-28T06:54:07.888Z,46.58
2018-03-28T06:55:10.433Z,31.55
2018-03-28T06:56:12.988Z,37.58
2018-03-28T06:57:16.301Z,34.90
2018-03-28T06:58:18.825Z,37.72
2018-03-28T06:59:22.122Z,38.78
2018-03-28T07:00:25.445Z,36.42
2018-03-28T07:01:27.965Z,38.92
2018-03-28T07:02:31.257Z,37.15
2018-03-28T07:03:34.547Z,31.05
2018-03-28T07:04:37.069Z,36.78
2018-03-28T07:05:39.646Z,34.00
2018-03-28T07:06:42.173Z,35.05
2018-03-28T07:07:44.692Z,42.47
2018-03-28T07:08:47.998Z,34.80
2018-03-28T07:09:50.525Z,42.10
2018-03-28T07:10:53.094Z,35.33
2018-03-28T07:11:55.608Z,37.90
2018-03-28T07:12:58.137Z,35.13
2018-03-28T07:14:00.654Z,35.13
2018-03-28T07:15:03.181Z,42.15
2018-03-28T07:16:06.505Z,34.20
2018-03-28T07:17:09.033Z,38.72
2018-03-28T07:18:12.334Z,38.50
2018-03-28T07:19:14.854Z,37.88
2018-03-28T07:20:17.378Z,40.17
2018-03-28T07:21:19.940Z,44.63
2018-03-28T07:22:22.460Z,37.58
2018-03-28T07:23:24.977Z,45.78
2018-03-28T07:24:27.504Z,42.83
2018-03-28T07:25:30.799Z,38.33
2018-03-28T07:26:34.110Z,38.25
2018-03-28T07:27:36.635Z,34.70
2018-03-28T07:28:39.183Z,36.33
2018-03-28T07:29:42.508Z,36.90
2018-03-28T07:30:45.034Z,45.33
2018-03-28T07:31:47.562Z,40.33
2018-03-28T07:32:50.081Z,34.45
2018-03-28T07:33:53.405Z,39.25
2018-03-28T07:34:55.930Z,35.58
2018-03-28T07:35:58.448Z,36.22
2018-03-28T07:37:00.972Z,40.40
2018-03-28T07:38:04.320Z,39.75
2018-03-28T07:39:06.868Z,38.22
2018-03-28T07:40:09.400Z,39.42
2018-03-28T07:41:12.706Z,40.22
2018-03-28T07:42:15.237Z,48.40
2018-03-28T07:43:18.526Z,43.35
2018-03-28T07:44:21.814Z,39.85
2018-03-28T07:45:25.110Z,42.88
2018-03-28T07:46:27.655Z,37.88
2018-03-28T07:47:30.936Z,41.47
2018-03-28T07:48:34.269Z,35.17
2018-03-28T07:49:36.796Z,43.13
2018-03-28T07:50:39.365Z,36.45
2018-03-28T07:51:42.688Z,36.72
2018-03-28T07:52:45.216Z,38.75
2018-03-28T07:53:48.536Z,37.35
2018-03-28T07:54:51.059Z,39.70
2018-03-28T07:55:54.389Z,37.90
2018-03-28T07:56:56.914Z,39.63
2018-03-28T07:58:00.201Z,39.50
2018-03-28T07:59:03.489Z,38.83
2018-03-28T08:00:06.022Z,35.47
2018-03-28T08:01:08.568Z,34.33
2018-03-28T08:02:11.133Z,32.17
2018-03-28T08:03:13.682Z,36.00
2018-03-28T08:04:16.266Z,34.30
2018-03-28T08:05:18.796Z,37.63
2018-03-28T08:06:21.320Z,35.45
2018-03-28T08:07:23.837Z,39.80
2018-03-28T08:08:26.404Z,37.33
2018-03-28T08:09:28.923Z,34.08
2018-03-28T08:10:31.442Z,35.58
2018-03-28T08:11:33.977Z,32.70
2018-03-28T08:12:37.266Z,57.58
2018-03-28T08:13:39.830Z,40.45
2018-03-28T08:14:43.114Z,51.30
2018-03-28T08:15:46.401Z,55.05
2018-03-28T08:16:48.929Z,55.33
2018-03-28T08:17:51.453Z,40.67
2018-03-28T08:18:54.009Z,41.53
2018-03-28T08:19:56.534Z,43.20
2018-03-28T08:20:59.055Z,38.13
2018-03-28T08:22:01.617Z,33.08
2018-03-28T08:23:04.142Z,33.60
2018-03-28T08:24:07.435Z,34.85
2018-03-28T08:25:10.754Z,34.67
2018-03-28T08:26:13.325Z,34.28
2018-03-28T08:27:15.846Z,31.98
2018-03-28T08:28:18.368Z,32.70
2018-03-28T08:29:21.663Z,41.47
2018-03-28T08:30:24.200Z,32.40
2018-03-28T08:31:26.762Z,31.98
2018-03-28T08:32:29.303Z,31.87
2018-03-28T08:33:32.587Z,28.80
2018-03-28T08:34:35.905Z,33.10
2018-03-28T08:35:38.448Z,36.83
2018-03-28T08:36:41.743Z,33.30
2018-03-28T08:37:44.272Z,36.63
2018-03-28T08:38:46.789Z,35.72
2018-03-28T08:39:49.401Z,40.60
2018-03-28T08:40:51.956Z,35.70
2018-03-28T08:41:54.549Z,39.22
2018-03-28T08:42:57.882Z,35.83
2018-03-28T08:44:00.402Z,31.55
2018-03-28T08:45:03.722Z,32.55
2018-03-28T08:46:06.247Z,35.97
2018-03-28T08:47:09.546Z,38.35
2018-03-28T08:48:12.864Z,32.47
2018-03-28T08:49:15.414Z,41.75
2018-03-28T08:50:17.960Z,37.08
2018-03-28T08:51:21.279Z,34.65
2018-03-28T08:52:23.808Z,33.25
2018-03-28T08:53:27.102Z,32.05
2018-03-28T08:54:30.393Z,31.02
2018-03-28T08:55:32.930Z,35.10
2018-03-28T08:56:35.486Z,28.98
2018-03-28T08:57:38.004Z,33.70
2018-03-28T08:58:40.531Z,39.28
2018-03-28T08:59:43.062Z,32.78
2018-03-28T09:00:45.621Z,31.45
2018-03-28T09:01:48.150Z,28.80
2018-03-28T09:02:50.672Z,29.83
2018-03-28T09:03:53.196Z,30.00
2018-03-28T09:04:55.751Z,27.75
2018-03-28T09:05:58.280Z,34.20
2018-03-28T09:07:00.850Z,28.77
2018-03-28T09:08:04.185Z,28.98
2018-03-28T09:09:06.701Z,29.45
2018-03-28T09:10:09.260Z,27.02
2018-03-28T09:11:11.814Z,28.48
2018-03-28T09:12:14.373Z,31.77
2018-03-28T09:13:16.893Z,29.42
2018-03-28T09:14:20.187Z,30.27
2018-03-28T09:15:22.715Z,31.58
2018-03-28T09:16:25.226Z,28.73
2018-03-28T09:17:27.794Z,28.60
2018-03-28T09:18:30.331Z,26.20
2018-03-28T09:19:33.630Z,29.20
2018-03-28T09:20:36.154Z,31.52
2018-03-28T09:21:38.671Z,31.95
2018-03-28T09:22:41.232Z,32.83
2018-03-28T09:23:43.754Z,36.30
2018-03-28T09:24:46.275Z,31.45
2018-03-28T09:25:48.788Z,30.17
2018-03-28T09:26:51.312Z,31.12
2018-03-28T09:27:53.891Z,33.05
2018-03-28T09:28:56.412Z,31.58
2018-03-28T09:29:59.695Z,34.30
2018-03-28T09:31:02.978Z,30.27
2018-03-28T09:32:06.271Z,28.05
2018-03-28T09:33:09.585Z,33.60
2018-03-28T09:34:12.109Z,34.78
2018-03-28T09:35:15.393Z,40.20
2018-03-28T09:36:18.714Z,34.38
2018-03-28T09:37:21.230Z,32.50
2018-03-28T09:38:23.756Z,26.92
2018-03-28T09:39:26.306Z,30.17
2018-03-28T09:40:28.830Z,30.40
2018-03-28T09:41:31.349Z,36.10
2018-03-28T09:42:33.883Z,34.08
2018-03-28T09:43:36.446Z,30.58
2018-03-28T09:44:39.738Z,32.40
2018-03-28T09:45:42.268Z,35.30
2018-03-28T09:46:44.785Z,35.55
2018-03-28T09:47:47.338Z,32.28
2018-03-28T09:48:49.865Z,37.30
2018-03-28T09:49:52.385Z,36.15
2018-03-28T09:50:54.905Z,34.00
2018-03-28T09:51:57.473Z,37.60
2018-03-28T09:52:59.996Z,30.85
2018-03-28T09:54:02.515Z,30.27
2018-03-28T09:55:05.797Z,38.55
2018-03-28T09:56:09.086Z,32.03
2018-03-28T09:57:12.409Z,32.45
2018-03-28T09:58:14.929Z,37.45
2018-03-28T09:59:18.208Z,33.25
2018-03-28T10:00:26.011Z,30.15
2018-03-28T10:01:30.104Z,31.62
2018-03-28T10:02:48.306Z,35.53
2018-03-28T10:03:50.825Z,33.40
2018-03-28T10:04:53.357Z,39.85
2018-03-28T10:05:55.916Z,36.15
2018-03-28T10:06:58.435Z,32.10
2018-03-28T10:08:00.962Z,32.83
2018-03-28T10:09:04.274Z,32.47
2018-03-28T10:10:06.849Z,34.03
2018-03-28T10:11:09.369Z,30.60
2018-03-28T10:12:11.926Z,31.50
2018-03-28T10:13:14.487Z,35.97
2018-03-28T10:14:17.009Z,39.15
2018-03-28T10:15:19.525Z,34.90
2018-03-28T10:16:22.045Z,37.42
2018-03-28T10:17:24.602Z,32.35
2018-03-28T10:18:27.118Z,34.72
2018-03-28T10:19:29.649Z,32.78
2018-03-28T10:20:32.200Z,31.92
2018-03-28T10:21:35.494Z,43.05
2018-03-28T10:22:38.044Z,31.85
2018-03-28T10:23:41.337Z,32.05
2018-03-28T10:24:43.862Z,32.45
2018-03-28T10:25:46.421Z,32.63
2018-03-28T10:26:48.942Z,33.72
2018-03-28T10:27:51.458Z,32.58
2018-03-28T10:28:54.003Z,30.58
2018-03-28T10:29:56.523Z,28.55
2018-03-28T10:30:59.830Z,37.45
2018-03-28T10:32:02.362Z,35.53
2018-03-28T10:33:05.697Z,30.45
2018-03-28T10:34:08.219Z,29.63
2018-03-28T10:35:11.543Z,29.58
2018-03-28T10:36:14.074Z,25.77
2018-03-28T10:37:17.357Z,26.48
2018-03-28T10:38:20.680Z,23.87
2018-03-28T10:39:23.205Z,28.15
2018-03-28T10:40:26.522Z,23.80
2018-03-28T10:41:29.045Z,25.00
2018-03-28T10:42:31.565Z,18.45
2018-03-28T10:43:34.077Z,21.98
2018-03-28T10:44:37.366Z,22.90
2018-03-28T10:45:40.675Z,23.48
2018-03-28T10:46:43.202Z,25.27
2018-03-28T10:47:45.732Z,25.33
2018-03-28T10:48:48.250Z,24.65
2018-03-28T10:49:51.537Z,19.17
2018-03-28T10:50:54.862Z,21.45
2018-03-28T10:51:57.462Z,25.30
2018-03-28T10:52:59.990Z,18.55
2018-03-28T10:54:02.511Z,19.85
2018-03-28T10:55:05.845Z,20.73
2018-03-28T10:56:08.375Z,20.20
2018-03-28T10:57:11.666Z,25.33
2018-03-28T10:58:14.190Z,20.37
2018-03-28T10:59:16.720Z,20.00
2018-03-28T11:00:19.283Z,17.52
2018-03-28T11:01:21.820Z,23.00
2018-03-28T11:02:25.105Z,22.95
2018-03-28T11:03:28.393Z,19.05
2018-03-28T11:04:31.704Z,18.50
2018-03-28T11:05:34.270Z,19.00
2018-03-28T11:06:36.801Z,19.42
2018-03-28T11:07:40.094Z,17.65
2018-03-28T11:08:43.384Z,18.37
2018-03-28T11:09:45.912Z,15.88
2018-03-28T11:10:48.485Z,18.42
2018-03-28T11:11:51.015Z,17.40
2018-03-28T11:12:53.541Z,18.08
2018-03-28T11:13:56.073Z,20.88
2018-03-28T11:14:58.596Z,22.02
2018-03-28T11:16:01.157Z,19.80
2018-03-28T11:17:03.680Z,18.87
2018-03-28T11:18:06.208Z,16.40
2018-03-28T11:19:08.860Z,20.25
2018-03-28T11:20:11.381Z,18.98
2018-03-28T11:21:13.936Z,21.60
2018-03-28T11:22:16.459Z,17.30
2018-03-28T11:23:19.014Z,19.15
2018-03-28T11:24:21.539Z,19.55
2018-03-28T11:25:24.214Z,21.35
2018-03-28T11:26:26.744Z,19.20
2018-03-28T11:27:29.273Z,21.98
2018-03-28T11:28:32.593Z,22.40
2018-03-28T11:29:35.110Z,19.50
2018-03-28T11:30:38.418Z,14.45
2018-03-28T11:31:40.947Z,18.35
2018-03-28T11:32:43.469Z,16.17
2018-03-28T11:33:45.989Z,13.77
2018-03-28T11:34:49.278Z,14.48
2018-03-28T11:35:52.597Z,19.20
2018-03-28T11:36:55.117Z,16.80
2018-03-28T11:37:57.704Z,17.73
2018-03-28T11:39:00.178Z,19.15
2018-03-28T11:40:02.710Z,20.35
2018-03-28T11:41:05.283Z,12.65
2018-03-28T11:42:07.794Z,15.82
2018-03-28T11:43:10.319Z,14.52
2018-03-28T11:44:13.598Z,15.00
2018-03-28T11:45:16.118Z,15.02
2018-03-28T11:46:18.674Z,16.02
2018-03-28T11:47:21.193Z,17.52
2018-03-28T11:48:23.715Z,17.05
2018-03-28T11:49:26.281Z,17.17
2018-03-28T11:50:28.805Z,17.65
2018-03-28T11:51:32.089Z,16.37
2018-03-28T11:52:35.382Z,16.85
2018-03-28T11:53:38.675Z,17.85
2018-03-28T11:54:41.230Z,17.23
2018-03-28T11:55:43.748Z,19.90
2018-03-28T11:56:46.273Z,18.27
2018-03-28T11:57:48.833Z,16.67
2018-03-28T11:58:51.374Z,16.20
2018-03-28T11:59:53.896Z,18.87
2018-03-28T12:00:56.418Z,14.10
2018-03-28T12:01:59.731Z,22.75
2018-03-28T12:03:02.249Z,16.17
2018-03-28T12:04:04.889Z,21.25
2018-03-28T12:05:07.418Z,17.45
2018-03-28T12:06:09.935Z,15.38
2018-03-28T12:07:12.499Z,13.85
2018-03-28T12:08:15.024Z,17.77
2018-03-28T12:09:17.550Z,21.17
2018-03-28T12:10:20.075Z,17.05
2018-03-28T12:11:22.606Z,18.67
2018-03-28T12:12:25.932Z,19.37
2018-03-28T12:13:28.469Z,17.58
2018-03-28T12:14:30.995Z,19.45
2018-03-28T12:15:33.513Z,15.15
2018-03-28T12:16:36.116Z,18.85
2018-03-28T12:17:38.599Z,15.85
2018-03-28T12:18:41.145Z,17.25
2018-03-28T12:19:43.671Z,17.37
2018-03-28T12:20:46.189Z,14.00
2018-03-28T12:21:48.702Z,16.85
2018-03-28T12:22:51.255Z,19.12
2018-03-28T12:23:54.545Z,15.32
2018-03-28T12:24:57.062Z,16.62
2018-03-28T12:25:59.587Z,18.45
2018-03-28T12:27:02.126Z,19.60
2018-03-28T12:28:05.440Z,14.77
2018-03-28T12:29:07.951Z,16.77
2018-03-28T12:30:10.481Z,19.67
2018-03-28T12:31:13.071Z,16.02
2018-03-28T12:32:15.641Z,20.20
2018-03-28T12:33:18.169Z,16.55
2018-03-28T12:34:20.698Z,23.12
2018-03-28T12:35:23.228Z,18.30
2018-03-28T12:36:25.763Z,18.90
2018-03-28T12:37:28.339Z,13.27
2018-03-28T12:38:30.905Z,16.37
2018-03-28T12:39:33.434Z,17.30
2018-03-28T12:40:36.724Z,13.05
2018-03-28T12:41:40.024Z,15.27
2018-03-28T12:42:42.544Z,16.95
2018-03-28T12:43:45.092Z,16.62
2018-03-28T12:44:47.626Z,15.48
2018-03-28T12:45:50.318Z,24.65
2018-03-28T12:46:52.847Z,16.23
2018-03-28T12:47:56.134Z,14.40
2018-03-28T12:48:58.722Z,18.52
2018-03-28T12:50:01.345Z,15.70
2018-03-28T12:51:04.580Z,19.17
2018-03-28T12:52:07.198Z,18.95
2018-03-28T12:53:09.651Z,16.60
2018-03-28T12:54:12.362Z,17.48
2018-03-28T12:55:14.896Z,15.60
2018-03-28T12:56:17.319Z,18.58
2018-03-28T12:57:19.853Z,17.12
2018-03-28T12:58:22.388Z,21.52
2018-03-28T12:59:24.949Z,18.50
2018-03-28T13:00:27.480Z,17.20
2018-03-28T13:01:30.002Z,18.65
2018-03-28T13:02:33.357Z,18.30
2018-03-28T13:03:35.842Z,20.45
2018-03-28T13:04:38.416Z,20.15
2018-03-28T13:05:41.700Z,16.52
2018-03-28T13:06:44.984Z,18.12
2018-03-28T13:07:48.290Z,15.60
2018-03-28T13:08:50.809Z,18.05
2018-03-28T13:09:53.376Z,18.20
2018-03-28T13:10:55.899Z,14.38
2018-03-28T13:11:58.456Z,17.60
2018-03-28T13:13:00.985Z,16.12
2018-03-28T13:14:03.532Z,17.55
2018-03-28T13:15:06.100Z,17.98
2018-03-28T13:16:08.642Z,18.02
2018-03-28T13:17:11.171Z,14.77
2018-03-28T13:18:14.457Z,16.80
2018-03-28T13:19:17.737Z,16.37
2018-03-28T13:20:21.081Z,20.58
2018-03-28T13:21:23.638Z,15.23
2018-03-28T13:22:26.184Z,15.15
2018-03-28T13:23:28.712Z,15.13
2018-03-28T13:24:32.006Z,15.05
2018-03-28T13:25:35.309Z,19.70
2018-03-28T13:26:37.861Z,18.92
2018-03-28T13:27:40.385Z,14.30
2018-03-28T13:28:42.934Z,13.77